createdAt,value
2022-11-15T00:00:19.115Z,-1.2
2022-11-15T00:05:41.755Z,-1.3
2022-11-15T00:16:37.750Z,-1.3
2022-11-15T00:22:16.246Z,-1.4
2022-11-15T00:27:53.714Z,-1.4
2022-11-15T00:33:17.615Z,-1.4
2022-11-15T00:38:55.722Z,-1.4
2022-11-15T00:44:34.970Z,-1.5
2022-11-15T00:49:41.134Z,-1.5
2022-11-15T00:55:20.181Z,-1.4
2022-11-15T01:00:57.399Z,-1.4
2022-11-15T01:06:21.577Z,-1.4
2022-11-15T01:11:59.184Z,-1.4
2022-11-15T01:17:36.526Z,-1.3
2022-11-15T01:23:14.262Z,-1.3
2022-11-15T01:28:52.567Z,-1.3
2022-11-15T01:34:29.798Z,-1.2
2022-11-15T01:40:06.753Z,-1.1
2022-11-15T01:45:44.547Z,-1.1
2022-11-15T01:51:06.182Z,-1.1
2022-11-15T01:56:43.993Z,-1.1
2022-11-15T02:02:21.970Z,-1.1
2022-11-15T02:07:44.714Z,-1.2
2022-11-15T02:12:35.130Z,-1.3
2022-11-15T02:18:11.710Z,-1.3
2022-11-15T02:23:48.807Z,-1.4
2022-11-15T02:28:55.542Z,-1.4
2022-11-15T02:34:32.537Z,-1.5
2022-11-15T02:40:09.504Z,-1.5
2022-11-15T02:45:31.437Z,-1.5
2022-11-15T02:51:08.337Z,-1.4
2022-11-15T02:55:58.898Z,-1.4
2022-11-15T03:01:36.627Z,-1.4
2022-11-15T03:06:59.150Z,-1.5
2022-11-15T03:12:20.878Z,-1.6
2022-11-15T03:17:27.262Z,-1.6
2022-11-15T03:22:48.487Z,-1.7
2022-11-15T03:28:09.547Z,-1.7
2022-11-15T03:33:34.712Z,-1.6
2022-11-15T03:38:56.673Z,-1.6
2022-11-15T03:44:39.079Z,-1.5
2022-11-15T03:50:16.089Z,-1.4
2022-11-15T03:55:53.546Z,-1.3
2022-11-15T04:00:59.772Z,-1.2
2022-11-15T04:06:22.233Z,-1
2022-11-15T04:16:51.297Z,-0.8
2022-11-15T04:22:28.808Z,-0.7
2022-11-15T04:28:12.240Z,-0.5
2022-11-15T04:33:34.480Z,-0.4
2022-11-15T04:39:17.185Z,-0.3
2022-11-15T04:44:54.175Z,-0.3
2022-11-15T04:50:15.485Z,-0.1
2022-11-15T04:55:53.540Z,-0.1
2022-11-15T05:01:21.126Z,0
2022-11-15T05:07:04.205Z,0.1
2022-11-15T05:12:26.568Z,0.2
2022-11-15T05:17:48.894Z,0.3
2022-11-15T05:23:28.630Z,0.3
2022-11-15T05:28:51.280Z,0.4
2022-11-15T05:34:13.249Z,0.4
2022-11-15T05:39:50.676Z,0.5
2022-11-15T05:45:12.322Z,0.6
2022-11-15T05:50:49.309Z,0.7
2022-11-15T05:56:15.552Z,0.8
2022-11-15T06:01:37.911Z,0.9
2022-11-15T06:07:01.298Z,0.9
2022-11-15T06:12:38.488Z,1
2022-11-15T06:18:22.830Z,1.1
2022-11-15T06:23:43.900Z,1.3
2022-11-15T06:29:21.144Z,1.4
2022-11-15T06:34:43.625Z,1.6
2022-11-15T06:40:20.140Z,1.8
2022-11-15T06:45:57.526Z,1.9
2022-11-15T06:51:34.704Z,2.2
2022-11-15T06:57:12.596Z,2.4
2022-11-15T07:02:50.301Z,2.8
2022-11-15T07:08:28.031Z,3.1
2022-11-15T07:14:10.394Z,3.5
2022-11-15T07:19:32.707Z,3.9
2022-11-15T07:24:54.812Z,4.3
2022-11-15T07:30:19.006Z,4.6
2022-11-15T07:35:56.446Z,5.1
2022-11-15T07:41:34.152Z,5.4
2022-11-15T07:47:12.147Z,5.9
2022-11-15T07:52:44.415Z,6.2
2022-11-15T07:58:07.514Z,6.4
2022-11-15T08:03:46.891Z,6.8
2022-11-15T08:09:24.924Z,7
2022-11-15T08:15:03.496Z,7.3
2022-11-15T08:20:45.738Z,7.6
2022-11-15T08:26:24.472Z,7.8
2022-11-15T08:32:02.381Z,8.1
2022-11-15T08:37:54.817Z,8.4
2022-11-15T08:43:33.377Z,8.8
2022-11-15T08:49:11.758Z,9.1
2022-11-15T08:54:49.732Z,9.4
2022-11-15T09:00:29.689Z,9.7
2022-11-15T09:06:08.492Z,9.9
2022-11-15T09:12:20.001Z,10.2
2022-11-15T09:17:59.277Z,10.4
2022-11-15T09:23:43.607Z,10.6
2022-11-15T09:29:56.933Z,10.9
2022-11-15T09:35:37.703Z,11.1
2022-11-15T09:41:21.856Z,11.3
2022-11-15T09:47:01.342Z,11.4
2022-11-15T09:52:38.622Z,11.8
2022-11-15T09:59:24.323Z,12.3
2022-11-15T10:05:22.875Z,12.4
2022-11-15T10:11:00.701Z,12.8
2022-11-15T10:17:02.995Z,13.7
2022-11-15T10:22:41.630Z,14.4
2022-11-15T10:28:08.765Z,15.3
2022-11-15T10:33:49.275Z,16.4
2022-11-15T10:47:18.697Z,19.2
2022-11-15T10:53:01.135Z,20.6
2022-11-15T10:58:43.990Z,21.2
2022-11-15T11:04:27.575Z,21.9
2022-11-15T11:10:29.269Z,22.6
2022-11-15T11:16:24.835Z,24.1
2022-11-15T11:21:52.748Z,25.9
2022-11-15T11:27:31.536Z,27.9
2022-11-15T11:33:12.777Z,31.8
2022-11-15T11:38:50.742Z,36.9
2022-11-15T11:44:12.799Z,41.6
2022-11-15T11:49:50.714Z,44.6
2022-11-15T11:55:29.375Z,49.6
2022-11-15T12:01:12.496Z,40.4
2022-11-15T12:06:51.057Z,38.9
2022-11-15T12:12:34.793Z,41.4
2022-11-15T12:18:12.714Z,43.8
2022-11-15T12:23:50.630Z,48.9
2022-11-15T12:29:41.392Z,41.8
2022-11-15T12:35:19.736Z,36.9
2022-11-15T12:40:59.710Z,38.4
2022-11-15T12:46:06.643Z,40.1
2022-11-15T12:51:13.558Z,41.2
2022-11-15T12:56:35.835Z,41.6
2022-11-15T13:02:14.553Z,41.6
2022-11-15T13:07:51.763Z,36
2022-11-15T13:13:33.026Z,34.6
2022-11-15T13:19:10.591Z,34.4
2022-11-15T13:24:48.536Z,34.3
2022-11-15T13:30:10.516Z,33.8
2022-11-15T13:36:05.350Z,33
2022-11-15T13:41:44.177Z,32
2022-11-15T13:47:22.847Z,30.9
2022-11-15T13:53:04.523Z,29.7
2022-11-15T13:58:43.160Z,28.3
2022-11-15T14:04:20.570Z,26.7
2022-11-15T14:10:04.205Z,25.1
2022-11-15T14:15:41.897Z,23.6
2022-11-15T14:21:04.458Z,22.1
2022-11-15T14:26:29.699Z,20.8
2022-11-15T14:31:51.834Z,19.5
2022-11-15T14:37:13.249Z,18.3
2022-11-15T14:47:58.036Z,16
2022-11-15T14:53:27.187Z,14.9
2022-11-15T14:58:49.702Z,13.9
2022-11-15T15:04:17.495Z,13.1
2022-11-15T15:09:30.271Z,12.2
2022-11-15T15:15:31.958Z,11.3
2022-11-15T15:20:56.455Z,10.6
2022-11-15T15:26:10.889Z,10.1
2022-11-15T15:31:33.760Z,9.6
2022-11-15T15:36:55.635Z,9.1
2022-11-15T15:42:20.435Z,8.6
2022-11-15T15:47:43.016Z,8.2
2022-11-15T15:53:13.548Z,7.8
2022-11-15T15:58:07.880Z,7.5
2022-11-15T16:03:15.250Z,7.1
2022-11-15T16:08:21.792Z,6.8
2022-11-15T16:14:13.973Z,6.4
2022-11-15T16:19:36.814Z,6.1
2022-11-15T16:24:59.293Z,5.8
2022-11-15T16:30:21.783Z,5.5
2022-11-15T16:35:52.636Z,5.3
2022-11-15T16:41:04.277Z,5
2022-11-15T16:46:30.831Z,4.8
2022-11-15T16:51:53.506Z,4.7
2022-11-15T16:57:15.235Z,4.4
2022-11-15T17:02:38.081Z,4.3
2022-11-15T17:07:49.489Z,4.1
2022-11-15T17:12:56.380Z,4
2022-11-15T17:18:17.959Z,3.9
2022-11-15T17:23:40.552Z,3.7
2022-11-15T17:29:07.570Z,3.6
2022-11-15T17:34:14.596Z,3.4
2022-11-15T17:39:36.855Z,3.4
2022-11-15T17:45:14.986Z,3.2
2022-11-15T17:50:37.409Z,3.1
2022-11-15T17:56:05.243Z,2.9
2022-11-15T18:01:50.560Z,2.9
2022-11-15T18:07:14.674Z,2.8
2022-11-15T18:12:52.281Z,2.6
2022-11-15T18:18:18.489Z,2.4
2022-11-15T18:23:57.169Z,2.3
2022-11-15T18:29:36.594Z,2.2
2022-11-15T18:34:44.667Z,2.1
2022-11-15T18:40:27.597Z,1.9
2022-11-15T18:45:50.435Z,1.9
2022-11-15T18:51:12.791Z,1.8
2022-11-15T18:56:51.332Z,1.6
2022-11-15T19:02:28.768Z,1.6
2022-11-15T19:08:11.500Z,1.6
2022-11-15T19:13:54.331Z,1.4
2022-11-15T19:19:31.584Z,1.4
2022-11-15T19:25:13.192Z,1.5
2022-11-15T19:30:51.270Z,1.4
2022-11-15T19:36:34.592Z,1.3
2022-11-15T19:42:16.974Z,1.2
2022-11-15T19:47:45.813Z,1.1
2022-11-15T19:53:23.639Z,1.1
2022-11-15T19:58:49.279Z,1
2022-11-15T20:04:27.962Z,1
2022-11-15T20:09:51.604Z,1
2022-11-15T20:15:13.497Z,1
2022-11-15T20:20:54.420Z,1
2022-11-15T20:26:32.528Z,1.1
2022-11-15T20:32:10.117Z,1
2022-11-15T20:37:48.513Z,1
2022-11-15T20:43:16.325Z,1
2022-11-15T20:48:58.634Z,1
2022-11-15T20:55:07.477Z,1.1
2022-11-15T21:00:30.331Z,1.2
2022-11-15T21:05:53.939Z,1.3
2022-11-15T21:11:37.614Z,1.4
2022-11-15T21:17:02.009Z,1.3
2022-11-15T21:22:29.901Z,1.4
2022-11-15T21:28:07.963Z,1.4
2022-11-15T21:33:51.843Z,1.4
2022-11-15T21:39:14.615Z,1.4
2022-11-15T21:44:53.497Z,1.3
2022-11-15T21:50:35.925Z,1.2
2022-11-15T22:00:50.016Z,1.1
2022-11-15T22:06:17.399Z,1.1
2022-11-15T22:11:55.829Z,1.1
2022-11-15T22:17:19.703Z,1.1
2022-11-15T22:23:13.246Z,1.1
2022-11-15T22:28:25.336Z,1
2022-11-15T22:33:31.198Z,1.1
2022-11-15T22:39:39.904Z,1.1
2022-11-15T22:45:16.882Z,1.1
2022-11-15T22:50:55.169Z,0.9
2022-11-15T22:56:37.769Z,0.9
2022-11-15T23:01:44.926Z,0.8
2022-11-15T23:07:26.536Z,0.7
2022-11-15T23:13:04.460Z,0.6
2022-11-15T23:18:42.641Z,0.6
2022-11-15T23:24:44.270Z,0.4
2022-11-15T23:30:22.465Z,0.4
2022-11-15T23:36:06.649Z,0.4
2022-11-15T23:41:44.330Z,0.4
2022-11-15T23:47:28.712Z,0.4
2022-11-15T23:53:06.508Z,0.4
2022-11-15T23:58:42.668Z,0.4
